Time;durP1;ratioP1;P1;durP2;ratioP2;P2;SDS_P1;SDS_P2;PMS_P1;PMS_P2;Temp;Humidity;BMP_temperature;BMP_pressure;BME280_temperature;BME280_humidity;BME280_pressure;Samples;Min_cycle;Max_cycle;Signal;HPM_P1;HPM_P2
2024/02/15 00:00:17;;;;;;;14.27;3.60;;;;;;;-146.27;94.70;38703.78;5071152;28;20083;-75
2024/02/15 00:02:44;;;;;;;17.98;4.03;;;;;;;-146.27;95.38;38759.41;5069974;28;20037;-74
2024/02/15 00:05:10;;;;;;;13.07;4.05;;;;;;;-146.27;95.47;38775.31;5063848;28;20032;-75
2024/02/15 00:07:36;;;;;;;11.68;4.20;;;;;;;-146.27;95.51;38834.91;5067964;28;20485;-75
2024/02/15 00:10:03;;;;;;;15.55;3.83;;;;;;;-146.27;95.63;38771.34;5066968;28;20031;-75
2024/02/15 00:12:29;;;;;;;10.90;4.30;;;;;;;-146.27;95.81;38826.97;5070166;28;20552;-74
2024/02/15 00:14:58;;;;;;;12.88;4.80;;;;;;;-146.27;95.75;38767.38;5068113;28;20497;-75
2024/02/15 00:17:29;;;;;;;16.17;4.68;;;;;;;-146.27;96.76;38886.56;5069955;28;20021;-74
2024/02/15 00:19:54;;;;;;;11.38;4.18;;;;;;;-146.27;95.72;38753.44;5070620;28;20492;-74
2024/02/15 00:22:21;;;;;;;13.18;4.75;;;;;;;-146.27;95.42;38711.72;5067528;28;20020;-74
2024/02/15 00:24:46;;;;;;;11.85;5.90;;;;;;;-146.27;94.80;38771.34;5069637;28;20052;-72
2024/02/15 00:27:11;;;;;;;16.08;6.68;;;;;;;-146.27;94.27;38668.03;5070330;28;20109;-72
2024/02/15 00:29:37;;;;;;;17.52;6.28;;;;;;;-146.27;94.48;38691.88;5055853;28;20021;-71
2024/02/15 00:32:03;;;;;;;21.48;7.18;;;;;;;-146.27;93.64;38660.06;5067865;28;20016;-71
2024/02/15 00:34:29;;;;;;;12.50;6.50;;;;;;;-146.27;93.67;38771.34;5070785;28;20106;-71
2024/02/15 00:36:54;;;;;;;13.98;6.25;;;;;;;-146.27;94.86;38787.22;5069489;28;20063;-73
2024/02/15 00:39:19;;;;;;;10.40;5.53;;;;;;;-146.27;94.23;38759.41;5069404;28;20504;-73
2024/02/15 00:41:45;;;;;;;17.27;5.72;;;;;;;-146.27;94.40;38783.25;5068932;28;20033;-72
2024/02/15 00:44:11;;;;;;;16.83;5.30;;;;;;;-146.27;93.97;38783.25;5064773;28;20418;-73
2024/02/15 00:46:38;;;;;;;11.35;4.65;;;;;;;-146.27;94.26;38785.25;5067256;28;20392;-73
2024/02/15 00:49:06;;;;;;;12.98;4.28;;;;;;;-146.27;95.56;38842.88;5069140;28;20028;-72
2024/02/15 00:51:33;;;;;;;8.30;4.15;;;;;;;-146.27;94.87;38713.72;5068814;28;20044;-72
2024/02/15 00:53:58;;;;;;;13.27;4.35;;;;;;;-146.27;94.40;38755.44;5067372;28;20043;-70
2024/02/15 00:56:24;;;;;;;18.25;5.45;;;;;;;-146.27;94.11;38828.94;5068623;28;20016;-73
2024/02/15 00:58:49;;;;;;;12.45;4.57;;;;;;;-146.27;95.53;38838.88;5067425;28;20035;-71
2024/02/15 01:01:15;;;;;;;8.55;4.43;;;;;;;-146.27;94.38;38757.44;5067123;28;20094;-72
2024/02/15 01:03:40;;;;;;;14.05;5.32;;;;;;;-146.27;94.08;38795.19;5067643;28;20074;-72
2024/02/15 01:06:05;;;;;;;11.45;6.30;;;;;;;-146.27;94.96;38791.19;5069232;28;20632;-72
2024/02/15 01:08:31;;;;;;;14.82;5.88;;;;;;;-146.27;95.87;38846.84;5067794;28;20111;-72
2024/02/15 01:10:56;;;;;;;12.93;5.75;;;;;;;-146.27;94.96;38819.03;5069602;28;20103;-72
2024/02/15 01:13:22;;;;;;;18.17;6.55;;;;;;;-146.27;94.73;38753.44;5071039;28;20013;-71
2024/02/15 01:15:47;;;;;;;15.85;6.15;;;;;;;-146.27;94.65;38803.13;5078657;28;20421;-72
2024/02/15 01:18:14;;;;;;;14.63;5.47;;;;;;;-146.27;93.91;38727.63;5070827;28;20032;-71
2024/02/15 01:20:39;;;;;;;12.85;6.00;;;;;;;-146.27;94.26;38844.84;5079818;28;20401;-71
2024/02/15 01:23:07;;;;;;;13.20;6.10;;;;;;;-146.27;94.11;38809.09;5067013;28;20051;-73
2024/02/15 01:25:32;;;;;;;15.45;6.43;;;;;;;-146.27;93.68;38777.28;5068058;28;20028;-73
2024/02/15 01:27:58;;;;;;;16.13;6.05;;;;;;;-146.27;93.46;38757.44;5061260;28;20051;-73
2024/02/15 01:30:23;;;;;;;17.45;6.72;;;;;;;-146.27;92.91;38717.69;5060286;28;20434;-72
2024/02/15 01:32:48;;;;;;;19.90;5.93;;;;;;;-146.27;92.91;38747.50;5069732;28;20499;-75
2024/02/15 01:35:14;;;;;;;15.40;6.30;;;;;;;-146.27;92.84;38755.44;5067436;28;20587;-73
2024/02/15 01:37:39;;;;;;;16.80;6.93;;;;;;;-146.27;93.35;38805.13;5067059;28;20385;-75
2024/02/15 01:40:06;;;;;;;16.30;6.38;;;;;;;-146.27;93.14;38819.03;5067494;28;20690;-74
2024/02/15 01:42:32;;;;;;;17.17;5.97;;;;;;;-146.27;94.20;38870.69;5067538;28;20032;-74
2024/02/15 01:44:57;;;;;;;18.10;6.55;;;;;;;-146.27;93.48;38817.03;5068714;28;20044;-74
2024/02/15 01:47:22;;;;;;;12.88;6.03;;;;;;;-146.27;94.15;38846.84;5070629;28;20242;-74
2024/02/15 01:49:49;;;;;;;14.32;6.82;;;;;;;-146.27;94.20;38838.88;5067981;28;20706;-74
2024/02/15 01:52:17;;;;;;;21.52;6.35;;;;;;;-146.27;94.15;38924.31;5068965;28;20040;-74
2024/02/15 01:54:42;;;;;;;13.55;6.85;;;;;;;-146.27;93.36;38826.97;5065227;28;20388;-74
2024/02/15 01:57:08;;;;;;;15.38;6.72;;;;;;;-146.27;93.22;38813.06;5068047;28;20020;-74
2024/02/15 01:59:34;;;;;;;15.55;6.28;;;;;;;-146.27;93.90;38936.25;5066102;28;20093;-73
2024/02/15 02:02:02;;;;;;;13.45;5.65;;;;;;;-146.27;93.55;38846.84;5072217;28;20025;-74
2024/02/15 02:04:27;;;;;;;7.22;5.30;;;;;;;-146.27;93.78;38906.44;5068577;28;20044;-74
2024/02/15 02:06:58;;;;;;;12.75;5.18;;;;;;;-146.27;93.54;38858.75;5068266;28;20075;-74
2024/02/15 02:09:24;;;;;;;16.65;5.72;;;;;;;-146.27;93.19;38842.88;5067726;28;20044;-74
2024/02/15 02:11:50;;;;;;;14.52;5.30;;;;;;;-146.27;93.52;38898.50;5063678;28;20098;-75
2024/02/15 02:14:16;;;;;;;15.65;5.43;;;;;;;-146.27;94.00;38934.25;5069079;28;20040;-74
2024/02/15 02:16:41;;;;;;;12.48;5.38;;;;;;;-146.27;94.76;38970.03;5065861;28;20020;-74
2024/02/15 02:19:08;;;;;;;18.60;5.65;;;;;;;-146.27;94.78;38914.41;5064054;28;20488;-74
2024/02/15 02:21:35;;;;;;;14.60;5.13;;;;;;;-146.27;94.64;38904.47;5067141;28;20052;-75
2024/02/15 02:24:02;;;;;;;15.35;5.60;;;;;;;-146.27;94.34;38850.81;5067317;28;20075;-74
2024/02/15 02:26:29;;;;;;;15.93;5.72;;;;;;;-146.27;94.13;38823.00;5067492;28;20481;-75
2024/02/15 02:28:55;;;;;;;11.07;4.50;;;;;;;-146.27;93.76;38870.69;5069174;28;20056;-74
2024/02/15 02:31:24;;;;;;;15.98;5.40;;;;;;;-146.27;93.87;38834.91;5067861;28;20480;-75
2024/02/15 02:33:53;;;;;;;13.88;4.85;;;;;;;-146.27;94.09;38922.34;5066883;28;20070;-74
2024/02/15 02:36:19;;;;;;;11.40;4.95;;;;;;;-146.27;94.70;38902.47;5068576;28;20032;-74
2024/02/15 02:38:45;;;;;;;17.50;4.68;;;;;;;-146.27;93.83;38850.81;5069990;28;20078;-75
2024/02/15 02:41:12;;;;;;;19.48;4.88;;;;;;;-146.27;94.26;38906.44;5066732;28;20155;-74
2024/02/15 02:43:39;;;;;;;14.23;4.85;;;;;;;-146.27;94.27;38910.41;5070767;28;20400;-72
2024/02/15 02:46:05;;;;;;;12.13;4.78;;;;;;;-146.27;94.67;38878.63;5068442;28;20036;-72
2024/02/15 02:48:31;;;;;;;14.07;4.30;;;;;;;-146.27;94.20;38874.66;5074792;28;20021;-72
2024/02/15 02:50:57;;;;;;;12.50;4.60;;;;;;;-146.27;95.03;38968.03;5068798;28;20537;-72
2024/02/15 02:53:23;;;;;;;12.02;5.03;;;;;;;-146.27;95.37;38918.38;5070384;28;20025;-72
2024/02/15 02:55:49;;;;;;;10.38;4.57;;;;;;;-146.27;95.16;38916.38;5073041;28;20058;-72
2024/02/15 02:58:15;;;;;;;14.77;5.63;;;;;;;-146.27;95.17;38993.88;5072062;28;20051;-72
2024/02/15 03:00:41;;;;;;;9.75;4.63;;;;;;;-146.27;94.56;38799.16;5070543;28;20497;-72
2024/02/15 03:03:06;;;;;;;10.65;4.20;;;;;;;-146.27;94.19;38902.47;5071648;28;20055;-72
2024/02/15 03:05:31;;;;;;;15.93;4.75;;;;;;;-146.27;94.00;38878.63;5070669;28;20051;-72
2024/02/15 03:07:57;;;;;;;13.32;4.88;;;;;;;-146.27;94.43;38848.81;5070926;28;20526;-72
2024/02/15 03:10:24;;;;;;;15.43;5.03;;;;;;;-146.27;94.19;38864.72;5070154;28;20400;-72
2024/02/15 03:12:50;;;;;;;13.05;4.10;;;;;;;-146.27;96.17;38993.88;5071306;28;20545;-71
2024/02/15 03:15:16;;;;;;;23.58;5.22;;;;;;;-146.27;95.25;38834.91;5076633;28;20056;-70
2024/02/15 03:17:43;;;;;;;16.52;4.82;;;;;;;-146.27;95.77;38914.41;5079192;28;20111;-72
2024/02/15 03:20:28;;;;;;;15.57;4.75;;;;;;;-146.27;95.77;38892.53;5069363;28;20028;-71
2024/02/15 03:22:55;;;;;;;14.45;5.03;;;;;;;-146.27;95.85;38918.38;5070278;28;20044;-72
2024/02/15 03:25:23;;;;;;;14.25;4.53;;;;;;;-146.27;95.04;38854.78;5069704;28;20170;-72
2024/02/15 03:27:52;;;;;;;9.55;4.25;;;;;;;-146.27;96.62;39039.56;5072470;28;20024;-71
2024/02/15 03:30:23;;;;;;;18.73;5.35;;;;;;;-146.27;96.17;38846.84;5069156;28;20028;-72
2024/02/15 03:32:50;;;;;;;21.27;5.10;;;;;;;-146.27;97.66;38954.13;5071783;28;20038;-72
2024/02/15 03:35:17;;;;;;;13.73;5.13;;;;;;;-146.27;99.38;38966.06;5076187;28;20033;-72
2024/02/15 03:37:42;;;;;;;13.98;5.13;;;;;;;-146.27;97.51;38795.19;5071606;28;20680;-73
2024/02/15 03:40:09;;;;;;;16.67;6.28;;;;;;;-146.27;97.91;38793.19;5070699;28;20035;-72
2024/02/15 03:42:38;;;;;;;13.77;5.97;;;;;;;-146.27;98.01;38890.56;5073878;28;20403;-71
2024/02/15 03:45:06;;;;;;;16.48;6.35;;;;;;;-146.27;98.85;38858.75;5071132;28;20056;-72
2024/02/15 03:47:35;;;;;;;14.68;6.75;;;;;;;-146.27;99.18;38886.56;5082719;28;20495;-72
2024/02/15 03:50:01;;;;;;;11.95;6.78;;;;;;;-146.27;98.68;38747.50;5075472;28;20020;-70
2024/02/15 03:52:27;;;;;;;17.50;6.63;;;;;;;-146.27;98.22;38850.81;5070550;28;20025;-74
2024/02/15 03:54:52;;;;;;;15.88;7.18;;;;;;;-146.27;98.32;38739.53;5069733;28;20073;-72
2024/02/15 03:57:20;;;;;;;18.55;7.68;;;;;;;-146.27;98.33;38791.19;5067112;28;20044;-72
2024/02/15 03:59:50;;;;;;;13.18;6.78;;;;;;;-146.27;97.94;38739.53;5072626;28;20025;-72
2024/02/15 04:02:16;;;;;;;16.55;7.43;;;;;;;-146.27;99.63;38805.13;5070187;28;20020;-72
2024/02/15 04:04:42;;;;;;;19.23;8.55;;;;;;;-146.27;99.17;38757.44;5063901;28;20034;-72
2024/02/15 04:07:08;;;;;;;18.85;8.82;;;;;;;-146.27;99.14;38815.03;5071720;28;20032;-72
2024/02/15 04:09:35;;;;;;;11.95;7.57;;;;;;;-146.27;99.45;38793.19;5069446;28;20024;-72
2024/02/15 04:12:01;;;;;;;12.05;7.40;;;;;;;-146.27;99.31;38759.41;5072215;28;20023;-72
2024/02/15 04:14:27;;;;;;;14.60;9.63;;;;;;;-146.27;99.99;38733.59;5069275;28;20043;-71
2024/02/15 04:16:53;;;;;;;17.05;7.68;;;;;;;-146.27;99.22;38699.81;5071875;28;20025;-73
2024/02/15 04:19:21;;;;;;;16.45;7.35;;;;;;;-146.27;99.37;38719.69;5069938;28;20093;-71
2024/02/15 04:21:47;;;;;;;12.10;7.20;;;;;;;-146.27;99.71;38799.16;5067392;28;20029;-71
2024/02/15 04:24:14;;;;;;;18.85;7.97;;;;;;;-146.27;99.60;38699.81;5070530;28;20140;-72
2024/02/15 04:26:40;;;;;;;15.90;7.72;;;;;;;-146.27;100.00;38735.56;5071131;28;20070;-72
2024/02/15 04:29:07;;;;;;;10.82;7.18;;;;;;;-146.27;99.58;38646.16;5069482;28;20579;-72
2024/02/15 04:31:36;;;;;;;16.00;7.15;;;;;;;-146.27;99.27;38656.09;5068835;28;20054;-72
2024/02/15 04:34:03;;;;;;;16.60;7.25;;;;;;;-146.27;99.40;38695.84;5069737;28;20028;-72
2024/02/15 04:36:33;;;;;;;12.85;7.57;;;;;;;-146.27;99.85;38677.94;5068260;28;20027;-71
2024/02/15 04:38:59;;;;;;;14.25;7.25;;;;;;;-146.27;99.89;38699.81;5069301;28;20392;-73
2024/02/15 04:41:24;;;;;;;12.73;7.13;;;;;;;-146.27;99.72;38662.06;5067449;28;20020;-71
2024/02/15 04:43:50;;;;;;;11.20;8.02;;;;;;;-146.27;99.24;38600.47;5068327;28;20028;-72
2024/02/15 04:46:15;;;;;;;10.98;7.60;;;;;;;-146.27;100.00;38793.19;5070083;28;20017;-72
2024/02/15 04:48:42;;;;;;;11.95;7.95;;;;;;;-146.27;100.00;38576.63;5069537;28;20481;-73
2024/02/15 04:51:12;;;;;;;16.98;8.38;;;;;;;-146.27;99.71;38666.03;5072554;28;20035;-72
2024/02/15 04:53:39;;;;;;;21.80;10.65;;;;;;;-146.27;98.92;38576.63;5069666;28;20027;-72
2024/02/15 04:56:14;;;;;;;17.65;10.40;;;;;;;-146.27;99.97;38662.06;5067903;28;20028;-73
2024/02/15 04:58:47;;;;;;;21.33;10.50;;;;;;;-146.27;99.94;38644.19;5069907;28;20119;-72
2024/02/15 05:01:16;;;;;;;17.45;10.68;;;;;;;-146.27;100.00;38580.59;5068175;28;20028;-72
2024/02/15 05:03:45;;;;;;;21.75;11.68;;;;;;;-146.27;100.00;38636.22;5068270;28;20032;-74
2024/02/15 05:06:12;;;;;;;23.83;11.38;;;;;;;-146.27;99.96;38638.22;5068830;28;20036;-75
2024/02/15 05:08:42;;;;;;;26.35;13.63;;;;;;;-146.27;99.60;38620.34;5067906;28;20058;-75
2024/02/15 05:11:17;;;;;;;26.02;12.60;;;;;;;-146.27;100.00;38755.44;5065380;28;20387;-74
2024/02/15 05:13:44;;;;;;;34.78;15.07;;;;;;;-146.27;100.00;38677.94;5069066;28;20036;-74
2024/02/15 05:16:09;;;;;;;25.80;14.15;;;;;;;-146.27;100.00;38648.16;5070718;28;20066;-75
2024/02/15 05:18:35;;;;;;;32.95;14.15;;;;;;;-146.27;100.00;38731.59;5068761;28;20457;-75
2024/02/15 05:21:01;;;;;;;29.35;12.20;;;;;;;-146.27;100.00;38648.16;5068798;28;20036;-75
2024/02/15 05:23:27;;;;;;;24.65;12.57;;;;;;;-146.27;100.00;38624.31;5069492;28;20068;-75
2024/02/15 05:25:54;;;;;;;23.10;12.68;;;;;;;-146.27;100.00;38612.38;5068416;28;20051;-75
2024/02/15 05:28:26;;;;;;;26.40;11.68;;;;;;;-146.27;100.00;38592.53;5069706;28;20021;-75
2024/02/15 05:31:25;;;;;;;21.25;11.13;;;;;;;-146.27;100.00;38590.53;5068996;28;20039;-75
2024/02/15 05:33:50;;;;;;;23.25;10.27;;;;;;;-146.27;100.00;38670.00;5067192;28;20052;-75
2024/02/15 05:36:20;;;;;;;23.02;11.27;;;;;;;-146.27;100.00;38672.00;5067819;28;20101;-75
2024/02/15 05:38:47;;;;;;;25.30;11.85;;;;;;;-146.27;100.00;38528.94;5069082;28;20016;-74
2024/02/15 05:41:13;;;;;;;28.67;11.68;;;;;;;-146.27;100.00;38580.59;5068050;28;20027;-75
2024/02/15 05:43:41;;;;;;;18.65;11.07;;;;;;;-146.27;100.00;38574.63;5068035;28;20032;-75
2024/02/15 05:46:07;;;;;;;23.98;11.32;;;;;;;-146.27;100.00;38546.81;5066420;28;20553;-75
2024/02/15 05:48:35;;;;;;;28.83;11.60;;;;;;;-146.27;100.00;38598.47;5068604;28;20040;-75
2024/02/15 05:51:01;;;;;;;23.52;11.30;;;;;;;-146.27;100.00;38675.97;5061155;28;20017;-76
2024/02/15 05:53:26;;;;;;;23.98;12.68;;;;;;;-146.27;100.00;38590.53;5068544;28;20074;-74
2024/02/15 05:55:52;;;;;;;25.90;10.90;;;;;;;-146.27;100.00;38511.06;5068324;28;20021;-74
2024/02/15 05:58:18;;;;;;;19.10;11.23;;;;;;;-146.27;100.00;38588.53;5067397;28;20449;-74
2024/02/15 06:00:49;;;;;;;21.52;10.77;;;;;;;-146.27;100.00;38592.53;5067122;28;20086;-75
2024/02/15 06:03:17;;;;;;;20.50;11.45;;;;;;;-146.27;100.00;38574.63;5069633;28;20017;-74
2024/02/15 06:05:44;;;;;;;21.63;10.75;;;;;;;-146.27;100.00;38598.47;5066752;28;20094;-74
2024/02/15 06:08:13;;;;;;;20.38;9.85;;;;;;;-146.27;100.00;38600.47;5067569;28;20032;-75
2024/02/15 06:10:40;;;;;;;26.40;11.93;;;;;;;-146.27;100.00;38616.38;5066707;28;20024;-75
2024/02/15 06:13:05;;;;;;;23.85;10.38;;;;;;;-146.27;100.00;38610.41;5068533;28;20024;-75
2024/02/15 06:15:31;;;;;;;20.63;10.57;;;;;;;-146.27;100.00;38594.50;5068785;28;20028;-75
2024/02/15 06:17:57;;;;;;;16.85;9.23;;;;;;;-146.27;100.00;38634.25;5067830;28;20066;-75
2024/02/15 06:20:22;;;;;;;17.00;9.02;;;;;;;-146.27;100.00;38568.69;5070853;28;20028;-74
2024/02/15 06:22:48;;;;;;;19.38;8.50;;;;;;;-146.27;100.00;38554.78;5073414;28;21541;-75
2024/02/15 06:25:14;;;;;;;13.80;7.78;;;;;;;-146.27;100.00;38580.59;5072644;28;20515;-75
2024/02/15 06:27:42;;;;;;;13.50;8.38;;;;;;;-146.27;100.00;38648.16;5073193;28;20054;-74
2024/02/15 06:41:07;;;;;;;10.10;6.15;;;;;;;-146.27;100.00;38640.19;5066379;28;20138;-75
2024/02/15 06:43:34;;;;;;;15.13;6.97;;;;;;;-146.27;100.00;38526.97;5074520;28;20048;-75
2024/02/15 06:46:00;;;;;;;10.50;6.38;;;;;;;-146.27;100.00;38578.63;5074465;28;20041;-75
2024/02/15 06:48:26;;;;;;;11.02;6.13;;;;;;;-146.27;100.00;38524.97;5074151;28;22158;-75
2024/02/15 06:50:51;;;;;;;15.52;7.13;;;;;;;-146.27;100.00;38560.72;5072239;28;20059;-75
2024/02/15 06:53:17;;;;;;;11.05;7.30;;;;;;;-146.27;100.00;38528.94;5072649;28;20430;-75
2024/02/15 06:55:42;;;;;;;13.88;6.57;;;;;;;-146.27;100.00;38501.13;5070487;28;20463;-75
2024/02/15 06:58:08;;;;;;;13.02;6.85;;;;;;;-146.27;100.00;38505.09;5069930;28;20032;-75
2024/02/15 07:00:33;;;;;;;14.98;7.38;;;;;;;-146.27;100.00;38592.53;5066699;28;20058;-75
2024/02/15 07:02:59;;;;;;;10.10;7.22;;;;;;;-146.27;100.00;38499.13;5070435;28;20055;-75
2024/02/15 07:05:27;;;;;;;12.32;7.45;;;;;;;-146.27;99.51;38445.50;5078094;28;20500;-75
2024/02/15 07:07:54;;;;;;;11.43;7.50;;;;;;;-146.27;100.00;38564.72;5071046;28;20035;-75
2024/02/15 07:10:21;;;;;;;10.45;7.32;;;;;;;-146.27;99.64;38477.28;5070119;28;20028;-76
2024/02/15 07:12:46;;;;;;;12.30;8.15;;;;;;;-146.27;100.00;38666.03;5072413;28;20108;-76
2024/02/15 07:15:12;;;;;;;13.55;8.15;;;;;;;-146.27;100.00;38604.44;5085004;28;20173;-76
2024/02/15 07:17:38;;;;;;;16.13;8.45;;;;;;;-146.27;100.00;38604.44;5076283;28;20032;-75
2024/02/15 07:20:04;;;;;;;14.05;9.82;;;;;;;-146.27;100.00;38477.28;5073901;28;20476;-75
2024/02/15 07:22:32;;;;;;;14.57;9.75;;;;;;;-146.27;100.00;38552.78;5071277;28;20032;-75
2024/02/15 07:24:57;;;;;;;19.65;11.38;;;;;;;-146.27;100.00;38576.63;5070237;28;20396;-75
2024/02/15 07:27:25;;;;;;;16.85;10.98;;;;;;;-146.27;100.00;38483.25;5066088;28;20017;-75
2024/02/15 07:29:51;;;;;;;15.82;10.48;;;;;;;-146.27;100.00;38548.81;5071615;28;20036;-75
2024/02/15 07:32:17;;;;;;;16.63;10.00;;;;;;;-146.27;100.00;38572.66;5072011;28;20032;-75
2024/02/15 07:34:47;;;;;;;17.73;10.82;;;;;;;-146.27;100.00;38556.75;5071472;28;20040;-75
2024/02/15 07:37:12;;;;;;;22.73;9.90;;;;;;;-146.27;100.00;38602.44;5070674;28;20636;-75
2024/02/15 07:39:40;;;;;;;21.00;11.60;;;;;;;-146.27;100.00;38592.53;5070113;28;20058;-76
2024/02/15 07:42:06;;;;;;;21.77;11.43;;;;;;;-146.27;100.00;38532.91;5069800;28;20142;-77
2024/02/15 07:44:42;;;;;;;23.27;10.95;;;;;;;-146.27;100.00;38586.56;5072209;28;20533;-75
2024/02/15 07:47:10;;;;;;;16.92;9.13;;;;;;;-146.27;100.00;38600.47;5072367;28;20117;-76
2024/02/15 07:49:36;;;;;;;16.08;9.30;;;;;;;-146.27;100.00;38640.19;5069841;28;20032;-76
2024/02/15 07:52:03;;;;;;;17.00;9.20;;;;;;;-146.27;100.00;38632.25;5071778;28;20144;-76
2024/02/15 07:54:30;;;;;;;19.40;9.63;;;;;;;-146.27;100.00;38586.56;5072348;28;20028;-76
2024/02/15 07:56:58;;;;;;;16.52;9.57;;;;;;;-146.27;100.00;38660.06;5071700;28;20024;-76
2024/02/15 07:59:23;;;;;;;18.75;9.38;;;;;;;-146.27;100.00;38602.44;5072480;28;20533;-76
2024/02/15 08:01:49;;;;;;;16.13;8.65;;;;;;;-146.27;100.00;38600.47;5071552;28;20028;-76
2024/02/15 08:04:18;;;;;;;22.65;8.95;;;;;;;-146.27;100.00;38544.84;5070992;28;20046;-76
2024/02/15 08:06:44;;;;;;;16.58;8.38;;;;;;;-146.27;100.00;38592.53;5071573;28;20045;-76
2024/02/15 08:09:13;;;;;;;13.00;7.72;;;;;;;-146.27;100.00;38648.16;5072504;28;20025;-76
2024/02/15 08:11:40;;;;;;;19.73;9.02;;;;;;;-146.27;100.00;38747.50;5072279;28;20103;-76
2024/02/15 08:14:09;;;;;;;17.98;8.40;;;;;;;-146.27;100.00;38731.59;5070741;28;20029;-76
2024/02/15 08:16:36;;;;;;;19.77;9.05;;;;;;;-146.27;100.00;38568.69;5069043;28;20377;-76
2024/02/15 08:19:01;;;;;;;11.75;7.22;;;;;;;-146.27;100.00;38801.13;5070380;28;20603;-76
2024/02/15 08:21:32;;;;;;;16.65;8.02;;;;;;;-146.27;100.00;38586.56;5070720;28;20103;-77
2024/02/15 08:24:00;;;;;;;14.68;7.57;;;;;;;-146.27;100.00;38666.03;5070899;28;20048;-76
2024/02/15 08:26:26;;;;;;;19.02;8.50;;;;;;;-146.27;100.00;38664.03;5072259;28;20044;-76
2024/02/15 08:28:52;;;;;;;17.17;8.15;;;;;;;-146.27;100.00;38612.38;5071952;28;20150;-76
2024/02/15 08:31:19;;;;;;;14.65;8.48;;;;;;;-146.27;100.00;38715.69;5071914;28;20369;-76
2024/02/15 08:33:45;;;;;;;20.23;8.10;;;;;;;-146.27;100.00;38747.50;5070533;28;20024;-75
2024/02/15 08:36:11;;;;;;;14.98;8.35;;;;;;;-146.27;100.00;38711.72;5071861;28;20388;-74
2024/02/15 08:38:37;;;;;;;17.58;8.93;;;;;;;-146.27;100.00;38735.56;5071612;28;20103;-74
2024/02/15 08:41:04;;;;;;;17.40;9.23;;;;;;;-146.27;100.00;38705.78;5070696;28;20039;-74
2024/02/15 08:43:32;;;;;;;23.60;8.88;;;;;;;-146.27;100.00;38691.88;5070764;28;20482;-73
2024/02/15 08:45:58;;;;;;;22.80;10.13;;;;;;;-146.27;100.00;38858.75;5070148;28;20033;-74
2024/02/15 08:48:23;;;;;;;16.90;9.45;;;;;;;-146.27;100.00;38888.56;5070774;28;20036;-75
2024/02/15 08:50:48;;;;;;;20.67;10.57;;;;;;;-146.27;100.00;38870.69;5069469;28;20025;-74
2024/02/15 08:53:15;;;;;;;19.35;9.75;;;;;;;-146.27;100.00;38936.25;5070710;28;20028;-73
2024/02/15 08:55:41;;;;;;;21.17;10.43;;;;;;;-146.27;100.00;38834.91;5071166;28;20119;-73
2024/02/15 08:58:06;;;;;;;17.85;10.13;;;;;;;-146.27;100.00;38906.44;5070794;28;20017;-74
2024/02/15 09:00:31;;;;;;;19.25;10.30;;;;;;;-146.27;100.00;38838.88;5071160;28;20484;-74
2024/02/15 09:02:57;;;;;;;24.83;10.65;;;;;;;-146.27;100.00;38952.16;5069258;28;20024;-73
2024/02/15 09:05:22;;;;;;;20.45;10.07;;;;;;;-146.27;100.00;38920.34;5069207;28;20028;-73
2024/02/15 09:07:48;;;;;;;19.15;9.80;;;;;;;-146.27;100.00;38832.94;5070951;28;20028;-73
2024/02/15 09:10:17;;;;;;;16.42;9.40;;;;;;;-146.27;100.00;38852.78;5067429;28;20042;-73
2024/02/15 09:12:46;;;;;;;21.75;8.70;;;;;;;-146.27;100.00;38884.59;5066465;28;20085;-72
2024/02/15 09:15:12;;;;;;;17.15;9.02;;;;;;;-146.27;100.00;38942.22;5070353;28;20028;-73
2024/02/15 09:17:40;;;;;;;18.70;8.82;;;;;;;-146.27;100.00;39089.25;5070819;28;20473;-73
2024/02/15 09:20:14;;;;;;;20.80;7.80;;;;;;;-146.27;100.00;39111.09;5072146;28;20070;-74
2024/02/15 09:22:50;;;;;;;19.13;8.20;;;;;;;-146.27;100.00;39144.88;5069684;28;20082;-72
2024/02/15 09:25:17;;;;;;;19.80;8.05;;;;;;;-146.27;100.00;39178.66;5063352;28;20727;-72
2024/02/15 09:27:45;;;;;;;17.50;8.00;;;;;;;-146.27;100.00;39208.47;5068273;28;20044;-72
2024/02/15 09:30:11;;;;;;;17.15;7.72;;;;;;;-146.27;100.00;39367.44;5067917;28;20569;-74
2024/02/15 09:32:37;;;;;;;16.33;6.85;;;;;;;-146.27;100.00;39367.44;5071762;28;20081;-73
2024/02/15 09:35:07;;;;;;;21.98;7.60;;;;;;;-146.27;100.00;39339.63;5069105;28;20028;-73
2024/02/15 09:37:33;;;;;;;25.27;9.10;;;;;;;-146.27;99.73;39373.41;5065711;28;20459;-72
2024/02/15 09:40:03;;;;;;;19.45;8.55;;;;;;;-146.27;99.26;39339.63;5070226;28;20443;-73
2024/02/15 09:42:29;;;;;;;15.48;7.45;;;;;;;-146.27;99.21;39319.75;5069972;28;20036;-73
2024/02/15 09:44:54;;;;;;;20.63;8.13;;;;;;;-146.27;100.00;39446.94;5070208;28;20491;-75
2024/02/15 09:47:20;;;;;;;16.42;8.25;;;;;;;-146.27;99.77;39518.47;5069464;28;20035;-76
2024/02/15 09:49:47;;;;;;;22.48;8.07;;;;;;;-146.27;99.92;39578.09;5069629;28;20032;-75
2024/02/15 09:52:15;;;;;;;18.77;8.15;;;;;;;-146.27;98.58;39522.44;5067972;28;20020;-76
2024/02/15 09:54:44;;;;;;;15.93;8.00;;;;;;;-146.27;98.51;39663.53;5069624;28;20040;-77
2024/02/15 09:57:11;;;;;;;18.98;7.93;;;;;;;-146.27;98.88;39705.28;5070167;28;20017;-75
2024/02/15 09:59:37;;;;;;;19.15;7.10;;;;;;;-146.27;98.75;39792.72;5070146;28;20028;-76
2024/02/15 10:02:03;;;;;;;14.07;8.18;;;;;;;-146.27;98.79;39687.38;5069485;28;20547;-76
2024/02/15 10:04:29;;;;;;;12.65;7.40;;;;;;;-146.27;97.33;39621.81;5069886;28;20040;-76
2024/02/15 10:06:54;;;;;;;12.95;7.50;;;;;;;-146.27;97.72;39741.06;5070087;28;20416;-76
2024/02/15 10:09:38;;;;;;;19.83;7.13;;;;;;;-146.27;98.26;39872.22;5068950;28;20495;-75
2024/02/15 10:12:06;;;;;;;12.98;6.10;;;;;;;-146.27;97.71;39715.22;5070342;28;20024;-74
2024/02/15 10:14:35;;;;;;;10.82;5.75;;;;;;;-146.27;97.78;39876.19;5070132;28;20043;-76
2024/02/15 10:17:11;;;;;;;10.27;6.25;;;;;;;-146.27;98.14;39764.91;5070212;28;20052;-76
2024/02/15 10:19:39;;;;;;;10.95;6.07;;;;;;;-146.27;98.28;39911.97;5070125;28;20098;-75
2024/02/15 10:22:09;;;;;;;10.50;6.10;;;;;;;-146.27;97.52;39727.13;5070060;28;20056;-75
2024/02/15 10:24:36;;;;;;;14.80;5.50;;;;;;;-146.27;97.41;39830.47;5069312;28;20098;-75
2024/02/15 10:27:06;;;;;;;12.85;5.57;;;;;;;-146.27;97.96;39878.19;5070061;28;20036;-75
2024/02/15 10:29:33;;;;;;;10.55;6.03;;;;;;;-146.27;97.48;39884.16;5070019;28;20056;-75
2024/02/15 10:32:00;;;;;;;15.63;6.57;;;;;;;-146.27;97.70;39878.19;5069875;28;20491;-75
2024/02/15 10:34:27;;;;;;;13.73;6.25;;;;;;;-146.27;97.05;39848.38;5068604;28;20826;-75
2024/02/15 10:37:13;;;;;;;14.45;6.30;;;;;;;-146.27;97.02;39911.97;5069937;28;20120;-76
2024/02/15 10:39:40;;;;;;;14.48;6.45;;;;;;;-146.27;96.68;39796.69;5069453;28;20037;-75
2024/02/15 10:42:11;;;;;;;12.00;5.80;;;;;;;-146.27;96.20;39776.81;5069823;28;20845;-75
2024/02/15 10:44:40;;;;;;;17.27;6.05;;;;;;;-146.27;96.17;39866.25;5069768;28;20024;-75
2024/02/15 10:47:07;;;;;;;16.25;6.20;;;;;;;-146.27;95.42;39735.09;5069623;28;20027;-74
2024/02/15 10:49:34;;;;;;;15.45;6.82;;;;;;;-146.27;95.00;39691.38;5069768;28;20094;-75
2024/02/15 10:52:04;;;;;;;15.70;5.50;;;;;;;-146.27;94.05;39667.53;5068531;28;20086;-75
2024/02/15 10:54:38;;;;;;;10.93;5.07;;;;;;;-146.27;93.33;39661.56;5068186;28;20024;-75
2024/02/15 10:57:05;;;;;;;15.07;5.30;;;;;;;-146.27;94.14;39828.50;5049747;28;20521;-75
2024/02/15 10:59:53;;;;;;;13.75;5.38;;;;;;;-146.27;93.69;39685.41;5049687;28;20078;-75
2024/02/15 11:02:32;;;;;;;9.80;4.40;;;;;;;-146.27;94.51;39725.16;5049602;28;20162;-75
2024/02/15 11:05:10;;;;;;;11.25;4.05;;;;;;;-146.27;93.79;39721.19;5070189;28;20070;-75
2024/02/15 11:07:36;;;;;;;10.07;4.13;;;;;;;-146.27;94.03;39705.28;5073200;28;20455;-72
2024/02/15 11:10:07;;;;;;;9.80;4.85;;;;;;;-146.27;93.59;39727.13;5073341;28;20384;-72
2024/02/15 11:12:33;;;;;;;7.78;4.10;;;;;;;-146.27;93.83;39649.63;5073367;28;20111;-72
2024/02/15 11:14:58;;;;;;;8.43;4.72;;;;;;;-146.27;93.42;39558.22;5072171;28;20104;-73